Time;durP1;ratioP1;P1;durP2;ratioP2;P2;SDS_P1;SDS_P2;PMS_P1;PMS_P2;Temp;Humidity;BMP_temperature;BMP_pressure;BME280_temperature;BME280_humidity;BME280_pressure;Samples;Min_cycle;Max_cycle;Signal;HPM_P1;HPM_P2
2023/05/22 00:00:17;;;;;;;25.37;20.90;;;;;;;;;;5056048;28;20667;-72
2023/05/22 00:02:43;;;;;;;21.33;19.17;;;;;;;;;;5038385;28;20189;-72
2023/05/22 00:05:10;;;;;;;20.83;18.73;;;;;;;;;;5056261;28;20257;-72
2023/05/22 00:07:37;;;;;;;23.73;20.97;;;;;;;;;;5056124;28;20229;-71
2023/05/22 00:10:03;;;;;;;21.93;19.60;;;;;;;;;;5038214;28;20255;-71
2023/05/22 00:12:29;;;;;;;21.53;19.53;;;;;;;;;;5056121;28;20636;-71
2023/05/22 00:14:55;;;;;;;26.93;20.70;;;;;;;;;;5056251;28;20171;-72
2023/05/22 00:17:22;;;;;;;23.30;21.00;;;;;;;;;;5056224;28;20203;-71
2023/05/22 00:19:48;;;;;;;24.80;21.27;;;;;;;;;;5039120;28;20209;-71
2023/05/22 00:22:14;;;;;;;23.47;21.27;;;;;;;;;;5056543;28;20256;-71
2023/05/22 00:24:40;;;;;;;24.30;21.90;;;;;;;;;;5038480;28;20348;-71
2023/05/22 00:27:06;;;;;;;24.70;21.97;;;;;;;;;;5056124;28;20209;-71
2023/05/22 00:29:32;;;;;;;24.73;21.30;;;;;;;;;;5037793;28;20221;-71
2023/05/22 00:31:58;;;;;;;24.97;22.33;;;;;;;;;;5056326;28;20297;-71
2023/05/22 00:34:24;;;;;;;25.80;23.07;;;;;;;;;;5037794;28;20174;-71
2023/05/22 00:36:50;;;;;;;24.53;22.00;;;;;;;;;;5037689;28;20577;-71
2023/05/22 00:39:15;;;;;;;26.57;23.80;;;;;;;;;;5055519;28;20707;-72
2023/05/22 00:41:41;;;;;;;26.07;23.40;;;;;;;;;;5055458;28;20232;-70
2023/05/22 00:44:09;;;;;;;28.53;25.53;;;;;;;;;;5055448;28;20181;-71
2023/05/22 00:46:35;;;;;;;27.83;24.90;;;;;;;;;;5037603;28;20289;-71
2023/05/22 00:49:01;;;;;;;31.17;26.67;;;;;;;;;;5038793;28;20200;-69
2023/05/22 00:51:28;;;;;;;29.53;26.33;;;;;;;;;;5055810;28;20573;-68
2023/05/22 00:53:54;;;;;;;28.40;25.40;;;;;;;;;;5037399;28;20640;-69
2023/05/22 00:56:20;;;;;;;29.47;26.40;;;;;;;;;;5055486;28;20211;-69
2023/05/22 00:58:46;;;;;;;34.13;26.13;;;;;;;;;;5037673;28;20533;-69
2023/05/22 01:01:12;;;;;;;31.17;27.80;;;;;;;;;;5055133;28;20556;-69
2023/05/22 01:03:43;;;;;;;29.53;26.57;;;;;;;;;;5055412;28;20174;-69
2023/05/22 01:06:13;;;;;;;32.57;27.87;;;;;;;;;;5055251;28;20190;-69
2023/05/22 01:08:40;;;;;;;33.90;27.10;;;;;;;;;;5055162;28;20633;-69
2023/05/22 01:11:14;;;;;;;32.87;29.30;;;;;;;;;;5036201;28;20287;-69
2023/05/22 01:13:59;;;;;;;33.53;29.53;;;;;;;;;;5037107;28;20177;-69
2023/05/22 01:16:36;;;;;;;33.93;30.20;;;;;;;;;;5054845;28;20194;-69
2023/05/22 01:19:08;;;;;;;36.00;29.93;;;;;;;;;;5036838;28;20178;-69
2023/05/22 01:21:49;;;;;;;38.43;32.97;;;;;;;;;;5055046;28;20174;-69
2023/05/22 01:24:36;;;;;;;33.73;30.10;;;;;;;;;;5054795;28;20186;-69
2023/05/22 01:27:02;;;;;;;42.93;31.97;;;;;;;;;;5054584;28;20292;-70
2023/05/22 01:29:42;;;;;;;36.30;32.13;;;;;;;;;;5036686;28;20182;-70
2023/05/22 01:32:09;;;;;;;44.33;36.93;;;;;;;;;;5036845;28;20166;-70
2023/05/22 01:34:36;;;;;;;52.67;38.73;;;;;;;;;;5054513;28;20548;-70
2023/05/22 01:37:02;;;;;;;38.63;32.60;;;;;;;;;;5054648;28;20576;-70
2023/05/22 01:39:29;;;;;;;39.27;33.97;;;;;;;;;;5054329;28;20202;-70
2023/05/22 01:41:55;;;;;;;44.30;34.30;;;;;;;;;;5036576;28;20193;-70
2023/05/22 01:44:22;;;;;;;40.50;34.90;;;;;;;;;;5056466;28;20313;-70
2023/05/22 01:46:48;;;;;;;41.03;35.33;;;;;;;;;;5036437;28;20698;-70
2023/05/22 01:49:14;;;;;;;162.27;117.57;;;;;;;;;;5054347;28;20174;-70
2023/05/22 01:51:47;;;;;;;80.83;64.40;;;;;;;;;;5054075;28;20186;-70
2023/05/22 01:54:22;;;;;;;86.93;65.97;;;;;;;;;;5054591;28;20165;-70
2023/05/22 01:56:56;;;;;;;64.53;52.13;;;;;;;;;;5036100;28;20279;-70
2023/05/22 01:59:36;;;;;;;61.13;46.63;;;;;;;;;;5054160;28;20167;-70
2023/05/22 02:02:04;;;;;;;53.13;42.23;;;;;;;;;;5053925;28;20210;-70
2023/05/22 02:04:31;;;;;;;52.07;41.63;;;;;;;;;;5036787;28;20183;-70
2023/05/22 02:06:59;;;;;;;47.30;41.77;;;;;;;;;;5054838;28;20281;-70
2023/05/22 02:09:27;;;;;;;53.10;43.00;;;;;;;;;;5054839;28;20184;-70
2023/05/22 02:11:53;;;;;;;53.20;41.40;;;;;;;;;;5055800;28;20218;-70
2023/05/22 02:14:19;;;;;;;43.70;37.47;;;;;;;;;;5053976;28;20653;-70
2023/05/22 02:16:46;;;;;;;44.97;36.20;;;;;;;;;;5035785;28;20336;-70
2023/05/22 02:19:12;;;;;;;41.03;35.13;;;;;;;;;;5054107;28;20257;-70
2023/05/22 02:21:38;;;;;;;36.80;32.80;;;;;;;;;;5035713;28;20185;-70
2023/05/22 02:24:04;;;;;;;39.43;33.03;;;;;;;;;;5035624;28;20556;-70
2023/05/22 02:26:31;;;;;;;39.43;33.07;;;;;;;;;;5053574;28;20575;-70
2023/05/22 02:28:57;;;;;;;35.83;31.33;;;;;;;;;;5053511;28;20189;-70
2023/05/22 02:31:23;;;;;;;36.20;30.93;;;;;;;;;;5053454;28;20209;-70
2023/05/22 02:33:49;;;;;;;37.27;31.00;;;;;;;;;;5053318;28;20178;-70
2023/05/22 02:36:14;;;;;;;31.63;28.13;;;;;;;;;;5035378;28;20285;-71
2023/05/22 02:38:40;;;;;;;32.97;29.37;;;;;;;;;;5036327;28;20214;-70
2023/05/22 02:41:07;;;;;;;32.17;28.60;;;;;;;;;;5053345;28;20182;-70
2023/05/22 02:43:33;;;;;;;32.43;28.17;;;;;;;;;;5053248;28;20192;-71
2023/05/22 02:45:59;;;;;;;32.53;27.50;;;;;;;;;;5035385;28;20281;-70
2023/05/22 02:48:25;;;;;;;31.03;27.63;;;;;;;;;;5035355;28;20210;-70
2023/05/22 02:50:50;;;;;;;29.90;26.80;;;;;;;;;;5035311;28;20202;-70
2023/05/22 02:53:16;;;;;;;34.00;28.37;;;;;;;;;;5053218;28;20178;-70
2023/05/22 02:55:43;;;;;;;32.63;29.17;;;;;;;;;;5052901;28;20205;-70
2023/05/22 02:58:10;;;;;;;32.90;28.37;;;;;;;;;;5053460;28;20613;-70
2023/05/22 03:00:39;;;;;;;31.73;27.17;;;;;;;;;;5035208;28;20273;-70
2023/05/22 03:03:05;;;;;;;31.77;27.33;;;;;;;;;;5053045;28;20187;-70
2023/05/22 03:05:31;;;;;;;29.83;26.63;;;;;;;;;;5053028;28;20198;-70
2023/05/22 03:07:57;;;;;;;31.63;27.73;;;;;;;;;;5053461;28;20174;-70
2023/05/22 03:10:23;;;;;;;31.13;27.53;;;;;;;;;;5035134;28;20296;-70
2023/05/22 03:12:52;;;;;;;31.80;26.73;;;;;;;;;;5053219;28;20202;-70
2023/05/22 03:15:18;;;;;;;30.67;27.10;;;;;;;;;;5052929;28;20703;-70
2023/05/22 03:17:44;;;;;;;33.90;27.50;;;;;;;;;;5035086;28;20244;-70
2023/05/22 03:20:15;;;;;;;33.47;28.37;;;;;;;;;;5053369;28;20185;-70
2023/05/22 03:22:41;;;;;;;31.93;27.30;;;;;;;;;;5055065;28;20174;-70
2023/05/22 03:25:08;;;;;;;31.77;27.93;;;;;;;;;;5055694;28;20182;-71
2023/05/22 03:27:34;;;;;;;33.27;27.73;;;;;;;;;;5037366;28;20206;-71
2023/05/22 03:30:00;;;;;;;34.80;30.30;;;;;;;;;;5054684;28;20209;-71
2023/05/22 03:32:26;;;;;;;35.13;29.00;;;;;;;;;;5037702;28;20179;-70
2023/05/22 03:34:52;;;;;;;37.53;30.40;;;;;;;;;;5059125;28;20186;-70
2023/05/22 03:37:18;;;;;;;39.70;29.70;;;;;;;;;;5057195;28;20282;-70
2023/05/22 03:39:44;;;;;;;36.10;30.13;;;;;;;;;;5057215;28;20178;-70
2023/05/22 03:42:12;;;;;;;34.83;29.17;;;;;;;;;;5057352;28;20623;-70
2023/05/22 03:44:38;;;;;;;34.83;29.10;;;;;;;;;;5039210;28;20679;-71
2023/05/22 03:47:04;;;;;;;37.40;29.73;;;;;;;;;;5039134;28;20698;-71
2023/05/22 03:49:30;;;;;;;36.33;30.83;;;;;;;;;;5039042;28;20240;-70
2023/05/22 03:51:56;;;;;;;32.73;28.43;;;;;;;;;;5039040;28;20182;-70
2023/05/22 03:54:22;;;;;;;34.93;30.10;;;;;;;;;;5038799;28;20228;-71
2023/05/22 03:56:48;;;;;;;37.37;30.83;;;;;;;;;;5056799;28;20215;-70
2023/05/22 03:59:15;;;;;;;35.63;31.07;;;;;;;;;;5057008;28;20179;-72
2023/05/22 04:01:41;;;;;;;36.97;31.90;;;;;;;;;;5056675;28;20702;-71
2023/05/22 04:04:08;;;;;;;39.30;31.17;;;;;;;;;;5056757;28;20174;-71
2023/05/22 04:06:41;;;;;;;41.57;32.43;;;;;;;;;;5056712;28;20570;-71
2023/05/22 04:09:07;;;;;;;41.83;33.03;;;;;;;;;;5056585;28;20166;-71
2023/05/22 04:11:33;;;;;;;39.07;33.03;;;;;;;;;;5038713;28;20206;-71
2023/05/22 04:14:02;;;;;;;42.30;35.00;;;;;;;;;;5056496;28;20257;-72
2023/05/22 04:16:28;;;;;;;42.47;34.57;;;;;;;;;;5056786;28;20197;-71
2023/05/22 04:18:55;;;;;;;45.87;36.87;;;;;;;;;;5056309;28;20253;-71
2023/05/22 04:21:22;;;;;;;50.13;38.90;;;;;;;;;;5056298;28;20543;-71
2023/05/22 04:23:48;;;;;;;51.53;39.80;;;;;;;;;;5056050;28;20666;-71
2023/05/22 04:26:14;;;;;;;55.43;43.03;;;;;;;;;;5038404;28;20232;-70
2023/05/22 04:28:44;;;;;;;53.17;42.23;;;;;;;;;;5039102;28;20183;-71
2023/05/22 04:31:11;;;;;;;56.07;45.07;;;;;;;;;;5056465;28;20194;-71
2023/05/22 04:33:37;;;;;;;55.83;45.40;;;;;;;;;;5038119;28;20175;-71
2023/05/22 04:36:03;;;;;;;59.33;46.97;;;;;;;;;;5055798;28;20199;-71
2023/05/22 04:38:30;;;;;;;64.50;47.20;;;;;;;;;;5055743;28;20190;-71
2023/05/22 04:40:57;;;;;;;62.43;47.73;;;;;;;;;;5055942;28;20182;-71
2023/05/22 04:43:25;;;;;;;62.57;48.60;;;;;;;;;;5056077;28;20183;-72
2023/05/22 04:45:52;;;;;;;68.37;50.23;;;;;;;;;;5054369;28;20202;-70
2023/05/22 04:48:18;;;;;;;61.13;49.70;;;;;;;;;;5055629;28;20183;-71
2023/05/22 04:50:45;;;;;;;62.80;48.83;;;;;;;;;;5037726;28;20232;-71
2023/05/22 04:53:11;;;;;;;66.20;51.23;;;;;;;;;;5055841;28;20171;-72
2023/05/22 04:55:38;;;;;;;64.70;49.43;;;;;;;;;;5055466;28;20182;-71
2023/05/22 04:58:05;;;;;;;58.20;47.70;;;;;;;;;;5055789;28;20178;-71
2023/05/22 05:00:31;;;;;;;57.97;47.60;;;;;;;;;;5055833;28;20236;-71
2023/05/22 05:02:59;;;;;;;57.13;45.77;;;;;;;;;;5055922;28;20240;-71
2023/05/22 05:05:25;;;;;;;56.50;44.50;;;;;;;;;;5056161;28;20216;-72
2023/05/22 05:07:52;;;;;;;55.13;45.90;;;;;;;;;;5055856;28;20182;-71
2023/05/22 05:10:18;;;;;;;57.00;46.00;;;;;;;;;;5037316;28;20209;-71
2023/05/22 05:12:44;;;;;;;52.17;45.83;;;;;;;;;;5055209;28;20179;-71
2023/05/22 05:15:10;;;;;;;55.20;46.37;;;;;;;;;;5055069;28;20171;-71
2023/05/22 05:17:36;;;;;;;54.20;45.00;;;;;;;;;;5054920;28;20333;-71
2023/05/22 05:20:05;;;;;;;56.13;46.87;;;;;;;;;;5055230;28;20189;-71
2023/05/22 05:22:31;;;;;;;56.20;46.23;;;;;;;;;;5037486;28;20183;-71
2023/05/22 05:24:57;;;;;;;57.27;46.07;;;;;;;;;;5055073;28;20189;-71
2023/05/22 05:27:23;;;;;;;48.33;42.77;;;;;;;;;;5054689;28;20206;-71
2023/05/22 05:29:49;;;;;;;51.50;43.13;;;;;;;;;;5054753;28;20256;-71
2023/05/22 05:32:15;;;;;;;50.60;43.50;;;;;;;;;;5055246;28;20655;-71
2023/05/22 05:34:41;;;;;;;51.27;42.33;;;;;;;;;;5055070;28;20232;-71
2023/05/22 05:37:07;;;;;;;45.27;40.37;;;;;;;;;;5054720;28;20198;-71
2023/05/22 05:39:33;;;;;;;47.50;42.47;;;;;;;;;;5054522;28;20171;-71
2023/05/22 05:41:59;;;;;;;42.27;37.73;;;;;;;;;;5054827;28;20186;-71
2023/05/22 05:44:25;;;;;;;44.00;37.87;;;;;;;;;;5036597;28;20274;-71
2023/05/22 05:46:51;;;;;;;43.00;38.33;;;;;;;;;;5054723;28;20197;-71
2023/05/22 05:49:18;;;;;;;45.73;40.70;;;;;;;;;;5054953;28;20225;-71
2023/05/22 05:51:44;;;;;;;46.37;40.87;;;;;;;;;;5055052;28;20286;-72
2023/05/22 05:54:10;;;;;;;50.07;41.70;;;;;;;;;;5036780;28;20332;-71
2023/05/22 05:56:36;;;;;;;54.20;43.50;;;;;;;;;;5054180;28;20210;-71
2023/05/22 05:59:03;;;;;;;48.03;41.50;;;;;;;;;;5054520;28;20182;-72
2023/05/22 06:01:30;;;;;;;48.97;43.40;;;;;;;;;;5054774;28;20659;-71
2023/05/22 06:03:56;;;;;;;45.63;40.77;;;;;;;;;;5054264;28;20175;-72
2023/05/22 06:06:24;;;;;;;48.77;43.70;;;;;;;;;;5037133;28;20206;-72
2023/05/22 06:08:51;;;;;;;50.17;43.57;;;;;;;;;;5054553;28;20657;-72
2023/05/22 06:11:17;;;;;;;47.60;42.60;;;;;;;;;;5054003;28;20237;-71
2023/05/22 06:13:43;;;;;;;46.13;41.30;;;;;;;;;;5037320;28;20174;-71
2023/05/22 06:16:09;;;;;;;44.30;39.50;;;;;;;;;;5055028;28;20190;-71
2023/05/22 06:18:35;;;;;;;40.90;36.53;;;;;;;;;;5054152;28;20179;-71
2023/05/22 06:21:01;;;;;;;40.90;36.60;;;;;;;;;;5036369;28;20540;-72
2023/05/22 06:23:27;;;;;;;38.77;34.87;;;;;;;;;;5054435;28;20269;-72
2023/05/22 06:25:54;;;;;;;39.90;35.33;;;;;;;;;;5060327;28;20202;-71
2023/05/22 06:28:20;;;;;;;40.27;36.00;;;;;;;;;;5058596;28;20171;-72
2023/05/22 06:30:46;;;;;;;38.47;34.50;;;;;;;;;;5039103;28;20202;-71
2023/05/22 06:33:13;;;;;;;38.30;34.37;;;;;;;;;;5054971;28;20182;-72
2023/05/22 06:35:39;;;;;;;38.17;33.87;;;;;;;;;;5054460;28;20170;-72
2023/05/22 06:38:05;;;;;;;37.63;33.73;;;;;;;;;;5054022;28;20181;-71
2023/05/22 06:40:31;;;;;;;36.67;32.80;;;;;;;;;;5054045;28;20261;-71
2023/05/22 06:42:58;;;;;;;38.50;34.47;;;;;;;;;;5054202;28;20178;-71
2023/05/22 06:45:24;;;;;;;37.03;33.20;;;;;;;;;;5053639;28;20179;-72
2023/05/22 06:47:53;;;;;;;38.40;34.60;;;;;;;;;;5054027;28;20710;-71
2023/05/22 06:50:20;;;;;;;40.50;36.37;;;;;;;;;;5053968;28;20312;-71
2023/05/22 06:52:46;;;;;;;40.63;36.63;;;;;;;;;;5036055;28;20269;-71
2023/05/22 06:55:12;;;;;;;38.33;34.43;;;;;;;;;;5054039;28;20213;-72
2023/05/22 06:57:38;;;;;;;39.17;35.27;;;;;;;;;;5037843;28;20571;-71
2023/05/22 07:00:08;;;;;;;40.67;36.53;;;;;;;;;;5056152;28;20175;-72
2023/05/22 07:02:34;;;;;;;39.57;35.37;;;;;;;;;;5038023;28;20296;-71
2023/05/22 07:05:00;;;;;;;40.00;36.00;;;;;;;;;;5037077;28;20678;-72
2023/05/22 07:07:26;;;;;;;39.87;35.87;;;;;;;;;;5055382;28;20198;-71
2023/05/22 07:09:52;;;;;;;42.00;37.80;;;;;;;;;;5061233;28;20703;-71
2023/05/22 07:12:19;;;;;;;42.03;37.73;;;;;;;;;;5035967;28;20273;-71
2023/05/22 07:14:45;;;;;;;42.73;38.30;;;;;;;;;;5054040;28;20174;-71
2023/05/22 07:17:11;;;;;;;41.50;37.10;;;;;;;;;;5054334;28;20244;-71
2023/05/22 07:19:37;;;;;;;41.93;37.73;;;;;;;;;;5053752;28;20185;-71
2023/05/22 07:22:03;;;;;;;43.07;38.50;;;;;;;;;;5036043;28;20237;-71
2023/05/22 07:24:29;;;;;;;43.60;38.30;;;;;;;;;;5036275;28;20227;-72
2023/05/22 07:26:55;;;;;;;44.83;40.10;;;;;;;;;;5041032;28;20273;-71
2023/05/22 07:29:21;;;;;;;44.23;39.63;;;;;;;;;;5054736;28;20210;-72
2023/05/22 07:31:47;;;;;;;41.97;37.53;;;;;;;;;;5054321;28;20206;-72
2023/05/22 07:34:13;;;;;;;45.43;40.10;;;;;;;;;;5054459;28;20185;-71
2023/05/22 07:36:39;;;;;;;44.33;39.93;;;;;;;;;;5054277;28;20198;-71
2023/05/22 07:39:05;;;;;;;46.97;42.27;;;;;;;;;;5054156;28;20294;-71
2023/05/22 07:41:31;;;;;;;46.10;41.07;;;;;;;;;;5054808;28;20211;-71
2023/05/22 07:43:57;;;;;;;47.83;42.77;;;;;;;;;;5054782;28;20174;-72
2023/05/22 07:46:23;;;;;;;46.53;41.63;;;;;;;;;;5058446;28;20197;-72
2023/05/22 07:48:49;;;;;;;47.73;42.53;;;;;;;;;;5060164;28;20632;-71
2023/05/22 07:51:15;;;;;;;46.37;41.50;;;;;;;;;;5055606;28;20201;-71
2023/05/22 07:53:41;;;;;;;45.20;40.70;;;;;;;;;;5057336;28;20170;-71
2023/05/22 07:56:07;;;;;;;45.43;40.63;;;;;;;;;;5058522;28;20333;-71
2023/05/22 07:58:33;;;;;;;45.90;41.30;;;;;;;;;;5058806;28;20170;-71
2023/05/22 08:01:00;;;;;;;46.80;41.77;;;;;;;;;;5059657;28;20597;-71
2023/05/22 08:03:26;;;;;;;46.30;41.40;;;;;;;;;;5059559;28;20185;-71
2023/05/22 08:05:52;;;;;;;48.27;43.30;;;;;;;;;;5044080;28;20210;-71
2023/05/22 08:08:18;;;;;;;50.83;43.83;;;;;;;;;;5055581;28;20557;-71
2023/05/22 08:10:44;;;;;;;48.27;43.23;;;;;;;;;;5036962;28;20257;-70
2023/05/22 08:13:11;;;;;;;48.33;43.23;;;;;;;;;;5055626;28;20175;-71
2023/05/22 08:15:37;;;;;;;47.87;42.33;;;;;;;;;;5054776;28;20171;-71
2023/05/22 08:18:03;;;;;;;45.90;41.30;;;;;;;;;;5038312;28;20678;-71
2023/05/22 08:20:29;;;;;;;46.77;41.87;;;;;;;;;;5041765;28;20182;-71
2023/05/22 08:22:55;;;;;;;53.83;42.83;;;;;;;;;;5061198;28;20181;-71
2023/05/22 08:25:21;;;;;;;46.27;41.37;;;;;;;;;;5060019;28;20546;-71
2023/05/22 08:27:47;;;;;;;46.23;41.23;;;;;;;;;;5059401;28;20257;-71
2023/05/22 08:30:13;;;;;;;48.50;43.23;;;;;;;;;;5060493;28;20710;-71
2023/05/22 08:32:39;;;;;;;47.33;42.47;;;;;;;;;;5045522;28;20186;-72
2023/05/22 08:35:05;;;;;;;47.70;42.60;;;;;;;;;;5059226;28;20175;-71
2023/05/22 08:37:31;;;;;;;46.37;41.53;;;;;;;;;;5048672;23;20231;-65
2023/05/22 08:39:57;;;;;;;47.97;42.90;;;;;;;;;;5035625;28;20187;-64
2023/05/22 08:42:24;;;;;;;51.23;44.40;;;;;;;;;;5035855;28;20720;-65
2023/05/22 08:44:51;;;;;;;50.63;45.20;;;;;;;;;;5035799;28;20211;-65
2023/05/22 08:47:17;;;;;;;51.47;45.93;;;;;;;;;;5017597;28;20314;-65
2023/05/22 08:49:43;;;;;;;51.67;46.10;;;;;;;;;;5017638;28;20187;-66
2023/05/22 08:52:14;;;;;;;55.13;47.73;;;;;;;;;;5017673;28;20700;-65
2023/05/22 08:54:41;;;;;;;53.13;46.87;;;;;;;;;;5017591;28;20183;-68
2023/05/22 08:57:08;;;;;;;55.73;47.13;;;;;;;;;;5035784;28;20230;-65
2023/05/22 08:59:35;;;;;;;51.97;45.77;;;;;;;;;;5035313;28;20175;-67
2023/05/22 09:02:01;;;;;;;51.03;45.23;;;;;;;;;;5018122;28;20171;-65
2023/05/22 09:04:27;;;;;;;52.60;46.00;;;;;;;;;;5035848;28;20182;-67
2023/05/22 09:06:54;;;;;;;50.07;44.77;;;;;;;;;;5035314;28;20203;-66
2023/05/22 09:09:20;;;;;;;50.90;44.00;;;;;;;;;;5035108;28;20177;-66
2023/05/22 09:11:46;;;;;;;49.37;44.00;;;;;;;;;;5017479;28;20258;-65
2023/05/22 09:14:12;;;;;;;49.07;43.77;;;;;;;;;;5035062;28;20175;-65
2023/05/22 09:16:45;;;;;;;46.13;41.03;;;;;;;;;;5035076;28;20199;-66
2023/05/22 09:19:12;;;;;;;47.77;42.27;;;;;;;;;;5035230;28;20596;-65
2023/05/22 09:21:38;;;;;;;46.60;41.57;;;;;;;;;;5035184;28;20258;-67
2023/05/22 09:24:07;;;;;;;50.50;41.93;;;;;;;;;;5017147;28;20625;-65
2023/05/22 09:26:33;;;;;;;47.60;40.10;;;;;;;;;;5035746;28;20261;-65
2023/05/22 09:29:00;;;;;;;48.33;43.17;;;;;;;;;;5017116;28;20661;-65
2023/05/22 09:31:27;;;;;;;46.27;41.20;;;;;;;;;;5033958;28;20202;-65
2023/05/22 09:33:53;;;;;;;50.30;41.97;;;;;;;;;;5034639;28;20175;-66
2023/05/22 09:36:19;;;;;;;47.10;41.93;;;;;;;;;;5034885;28;20191;-65
2023/05/22 09:38:45;;;;;;;50.93;43.67;;;;;;;;;;5033670;28;20683;-65
2023/05/22 09:41:11;;;;;;;52.20;43.20;;;;;;;;;;5034141;28;20180;-65
2023/05/22 09:43:37;;;;;;;55.83;45.63;;;;;;;;;;5033519;28;20190;-65
2023/05/22 09:46:03;;;;;;;55.43;44.30;;;;;;;;;;5015961;28;20649;-65
2023/05/22 09:48:34;;;;;;;56.00;44.97;;;;;;;;;;5033714;28;20175;-65
2023/05/22 09:51:01;;;;;;;55.10;45.97;;;;;;;;;;5033897;28;20214;-65
2023/05/22 09:53:27;;;;;;;54.10;45.27;;;;;;;;;;5034368;28;20222;-68
2023/05/22 09:55:55;;;;;;;54.97;43.87;;;;;;;;;;5033700;28;20203;-67
2023/05/22 09:58:23;;;;;;;55.70;45.07;;;;;;;;;;5015999;28;20254;-68
2023/05/22 10:00:50;;;;;;;52.77;43.57;;;;;;;;;;5034020;28;20183;-64
2023/05/22 10:03:17;;;;;;;55.90;45.23;;;;;;;;;;5033714;28;20191;-65
2023/05/22 10:05:46;;;;;;;55.50;44.97;;;;;;;;;;5033936;28;20648;-65
2023/05/22 10:08:17;;;;;;;50.70;44.17;;;;;;;;;;5033603;28;20207;-65
2023/05/22 10:10:46;;;;;;;48.60;42.63;;;;;;;;;;5033268;28;20294;-65
2023/05/22 10:13:12;;;;;;;47.40;42.40;;;;;;;;;;5033131;28;20261;-65
2023/05/22 10:15:39;;;;;;;45.27;40.37;;;;;;;;;;5033110;28;20229;-65
2023/05/22 10:18:05;;;;;;;46.23;41.23;;;;;;;;;;5015357;28;20199;-66
2023/05/22 10:20:31;;;;;;;46.67;41.83;;;;;;;;;;5032978;28;20190;-65
2023/05/22 10:22:58;;;;;;;46.33;41.60;;;;;;;;;;5033020;28;20559;-66
2023/05/22 10:25:27;;;;;;;44.57;39.97;;;;;;;;;;5032913;28;20191;-66
2023/05/22 10:27:54;;;;;;;46.83;41.73;;;;;;;;;;5032864;28;20324;-66
2023/05/22 10:30:23;;;;;;;45.53;40.77;;;;;;;;;;5015204;28;20890;-66
2023/05/22 10:32:57;;;;;;;45.77;40.77;;;;;;;;;;5032995;28;20171;-67
2023/05/22 10:35:26;;;;;;;44.33;39.70;;;;;;;;;;5015272;28;20260;-65
2023/05/22 10:38:01;;;;;;;44.90;40.07;;;;;;;;;;4996292;28;1066751;-66
2023/05/22 10:40:29;;;;;;;44.50;39.80;;;;;;;;;;5015820;28;20248;-65
2023/05/22 10:43:03;;;;;;;46.40;41.47;;;;;;;;;;5015172;28;20183;-65
2023/05/22 10:45:29;;;;;;;45.53;40.67;;;;;;;;;;5015657;28;20194;-65
2023/05/22 10:48:03;;;;;;;47.50;41.23;;;;;;;;;;5015560;28;20199;-66
2023/05/22 10:50:29;;;;;;;44.13;39.50;;;;;;;;;;5033491;28;20199;-66
2023/05/22 10:53:13;;;;;;;44.73;40.07;;;;;;;;;;5033296;28;20259;-66
2023/05/22 10:56:01;;;;;;;44.90;40.17;;;;;;;;;;5033318;28;20229;-65
2023/05/22 10:58:31;;;;;;;44.03;38.23;;;;;;;;;;5033345;28;20243;-67
2023/05/22 11:01:16;;;;;;;45.03;40.33;;;;;;;;;;5015449;28;20187;-66
2023/05/22 11:03:51;;;;;;;41.93;36.87;;;;;;;;;;5033519;28;20224;-66
2023/05/22 11:06:34;;;;;;;43.47;38.73;;;;;;;;;;5015416;28;20183;-65
2023/05/22 11:09:15;;;;;;;42.67;37.60;;;;;;;;;;5015380;28;20186;-66
2023/05/22 11:11:41;;;;;;;41.90;37.47;;;;;;;;;;5015395;28;20214;-66
2023/05/22 11:14:07;;;;;;;43.07;38.40;;;;;;;;;;5015742;28;20572;-65
2023/05/22 11:16:34;;;;;;;44.60;40.23;;;;;;;;;;5033502;28;20199;-66
2023/05/22 11:19:02;;;;;;;43.17;38.67;;;;;;;;;;5033150;28;20171;-66
2023/05/22 11:21:28;;;;;;;44.37;39.57;;;;;;;;;;5033220;28;20619;-65
2023/05/22 11:23:58;;;;;;;45.43;40.37;;;;;;;;;;5015439;28;20178;-65
2023/05/22 11:26:26;;;;;;;45.40;39.50;;;;;;;;;;5015258;28;20202;-66
2023/05/22 11:28:52;;;;;;;;;;;;;;;;;;5015595;28;20022;-64
2023/05/22 11:31:18;;;;;;;;;;;;;;;;;;5015608;28;19909;-66
2023/05/22 11:33:44;;;;;;;;;;;;;;;;;;5033732;28;20278;-66
2023/05/22 11:36:10;;;;;;;43.97;39.20;;;;;;;;;;5032620;28;20188;-66
2023/05/22 11:38:37;;;;;;;46.43;40.77;;;;;;;;;;5015385;28;20190;-67
2023/05/22 11:41:03;;;;;;;45.33;40.53;;;;;;;;;;5015211;28;20179;-66
2023/05/22 11:43:32;;;;;;;43.90;39.20;;;;;;;;;;5033088;28;20172;-67
2023/05/22 11:46:09;;;;;;;44.20;39.60;;;;;;;;;;5033100;28;20248;-68
2023/05/22 11:48:35;;;;;;;44.30;39.90;;;;;;;;;;5033134;28;20713;-67
2023/05/22 11:51:02;;;;;;;45.43;40.70;;;;;;;;;;5032960;28;20211;-67
2023/05/22 11:53:29;;;;;;;44.87;40.27;;;;;;;;;;5015429;28;20194;-66
2023/05/22 11:55:55;;;;;;;44.17;39.47;;;;;;;;;;5036494;28;20183;-66
2023/05/22 11:58:26;;;;;;;46.07;40.53;;;;;;;;;;5036332;28;20205;-66
2023/05/22 12:00:56;;;;;;;44.77;40.03;;;;;;;;;;5018842;28;20225;-66
2023/05/22 12:03:22;;;;;;;46.97;41.60;;;;;;;;;;5036556;28;20183;-66
2023/05/22 12:05:50;;;;;;;43.50;38.87;;;;;;;;;;5036369;28;20190;-67
2023/05/22 12:08:16;;;;;;;41.53;37.07;;;;;;;;;;5018558;28;20568;-66
2023/05/22 12:10:51;;;;;;;44.37;39.40;;;;;;;;;;5036451;28;20288;-72
2023/05/22 12:13:24;;;;;;;45.83;41.60;;;;;;;;;;5034953;28;20375;-67
2023/05/22 12:15:50;;;;;;;48.08;42.10;;;;;;;;;;5034902;28;20465;-66
2023/05/22 12:18:18;;;;;;;46.93;42.27;;;;;;;;;;5017096;28;20371;-66
2023/05/22 12:20:44;;;;;;;47.20;42.35;;;;;;;;;;5017211;28;20476;-66
2023/05/22 12:23:25;;;;;;;47.92;43.35;;;;;;;;;;5034851;28;20434;-66
2023/05/22 12:25:58;;;;;;;43.40;39.13;;;;;;;;;;5016890;28;20419;-67
2023/05/22 12:28:24;;;;;;;47.03;42.63;;;;;;;;;;5034789;28;20379;-67
2023/05/22 12:30:56;;;;;;;44.72;40.50;;;;;;;;;;5034668;28;20893;-67
2023/05/22 12:33:29;;;;;;;42.70;38.70;;;;;;;;;;5017021;28;20383;-66
2023/05/22 12:35:57;;;;;;;43.45;39.10;;;;;;;;;;5016842;28;20474;-67
2023/05/22 12:38:26;;;;;;;43.70;39.22;;;;;;;;;;5034386;28;20399;-67
2023/05/22 12:40:54;;;;;;;44.00;39.55;;;;;;;;;;5034762;28;20383;-67
2023/05/22 12:43:21;;;;;;;40.92;36.83;;;;;;;;;;5034768;28;20395;-66
2023/05/22 12:45:47;;;;;;;41.38;37.38;;;;;;;;;;5017837;28;20723;-67
2023/05/22 12:48:13;;;;;;;40.80;36.90;;;;;;;;;;5035458;28;20688;-68
2023/05/22 12:50:39;;;;;;;39.83;35.63;;;;;;;;;;5035682;28;20191;-69
2023/05/22 12:53:05;;;;;;;38.83;34.70;;;;;;;;;;5017615;28;20652;-68
2023/05/22 12:55:32;;;;;;;37.70;33.70;;;;;;;;;;5035598;28;20179;-68
2023/05/22 12:57:58;;;;;;;41.00;37.00;;;;;;;;;;5016260;28;20382;-67
2023/05/22 13:00:24;;;;;;;41.65;37.55;;;;;;;;;;5034092;28;20442;-68
2023/05/22 13:02:51;;;;;;;39.72;35.67;;;;;;;;;;5033984;28;20892;-68
2023/05/22 13:05:17;;;;;;;33.97;30.50;;;;;;;;;;5035420;28;20183;-68
2023/05/22 13:07:43;;;;;;;36.30;32.70;;;;;;;;;;5034395;28;20199;-70
2023/05/22 13:10:09;;;;;;;38.45;34.85;;;;;;;;;;5016042;28;20407;-68
2023/05/22 13:12:35;;;;;;;34.93;31.60;;;;;;;;;;5017281;28;20656;-68
2023/05/22 13:15:01;;;;;;;34.40;31.00;;;;;;;;;;5035007;28;20178;-68
2023/05/22 13:17:27;;;;;;;33.07;29.83;;;;;;;;;;5035144;28;20195;-68
2023/05/22 13:19:54;;;;;;;32.93;29.63;;;;;;;;;;5035052;28;20175;-68
2023/05/22 13:22:21;;;;;;;35.03;31.35;;;;;;;;;;5035541;28;20264;-68
2023/05/22 13:24:47;;;;;;;33.40;30.10;;;;;;;;;;5017470;28;20174;-68
2023/05/22 13:27:13;;;;;;;32.40;29.00;;;;;;;;;;5035007;28;20191;-70
2023/05/22 13:29:39;;;;;;;30.20;27.25;;;;;;;;;;5034855;28;20025;-68
2023/05/22 13:32:05;;;;;;;33.42;30.10;;;;;;;;;;5017049;28;20217;-68
2023/05/22 13:34:31;;;;;;;30.15;27.17;;;;;;;;;;5034654;28;20649;-68
2023/05/22 13:36:57;;;;;;;28.60;25.65;;;;;;;;;;5034291;28;20265;-67
2023/05/22 13:39:23;;;;;;;;;;;;;;;;;;5017497;28;20014;-68
2023/05/22 13:41:49;;;;;;;;;;;;;;;;;;5035443;28;20371;-67
2023/05/22 13:44:15;;;;;;;31.47;28.30;;;;;;;;;;5033257;28;20399;-68
2023/05/22 13:46:41;;;;;;;28.77;26.05;;;;;;;;;;5033546;28;20873;-68
2023/05/22 13:49:07;;;;;;;32.22;29.25;;;;;;;;;;5033313;28;20379;-68
2023/05/22 13:51:32;;;;;;;36.20;32.78;;;;;;;;;;5033202;28;20399;-68
2023/05/22 13:53:58;;;;;;;33.97;30.57;;;;;;;;;;5033122;28;20769;-68
2023/05/22 13:56:25;;;;;;;28.63;26.13;;;;;;;;;;5033120;28;20391;-69
2023/05/22 13:58:51;;;;;;;27.92;25.33;;;;;;;;;;5033577;28;20624;-68
2023/05/22 14:01:16;;;;;;;28.80;25.80;;;;;;;;;;5033386;28;20427;-68
2023/05/22 14:03:43;;;;;;;31.60;28.50;;;;;;;;;;5015568;28;20761;-68
2023/05/22 14:06:09;;;;;;;34.78;31.30;;;;;;;;;;5033235;28;20392;-67
2023/05/22 14:08:35;;;;;;;30.83;27.83;;;;;;;;;;5033220;28;20393;-68
2023/05/22 14:11:01;;;;;;;29.38;26.55;;;;;;;;;;5033197;28;20403;-68
2023/05/22 14:13:27;;;;;;;29.70;26.85;;;;;;;;;;5015320;28;20388;-68
2023/05/22 14:15:53;;;;;;;38.20;34.20;;;;;;;;;;5033647;28;20733;-68
2023/05/22 14:18:19;;;;;;;44.17;39.57;;;;;;;;;;5014746;28;20387;-68